createdAt,value
2022-08-26T12:07:59.240Z,1006.25
2022-08-26T12:08:59.286Z,1006.33
2022-08-26T12:09:59.170Z,1006.28
2022-08-26T12:40:34.014Z,1006.29
2022-08-26T12:41:33.898Z,1006.24
2022-08-26T12:43:27.908Z,1006.25
2022-08-26T12:44:27.905Z,1006.29
2022-08-26T12:45:27.972Z,1006.28
2022-08-26T12:46:27.868Z,1006.28
2022-08-26T12:47:41.888Z,1006.22
2022-08-26T12:48:27.847Z,1006.22
2022-08-26T12:49:27.836Z,1006.26
2022-08-26T12:50:27.836Z,1006.24
2022-08-26T12:51:27.799Z,1006.19
2022-08-26T12:52:27.789Z,1006.21
2022-08-26T12:53:27.774Z,1006.18
2022-08-26T12:54:27.764Z,1006.14
2022-08-26T12:55:27.763Z,1006.19
2022-08-26T12:56:27.746Z,1006.21
2022-08-26T12:57:27.738Z,1006.18
2022-08-26T12:58:27.722Z,1006.20
2022-08-26T12:59:27.711Z,1006.22
2022-08-26T13:00:28.514Z,1006.20
2022-08-26T13:01:27.810Z,1006.21
2022-08-26T13:02:27.679Z,1006.19
2022-08-26T13:03:27.652Z,1006.18
2022-08-26T13:04:27.650Z,1006.19
2022-08-26T13:05:27.627Z,1006.14
2022-08-26T13:06:27.630Z,1006.13
2022-08-26T13:07:27.601Z,1006.09
2022-08-26T13:08:27.599Z,1006.14
2022-08-26T13:09:27.590Z,1006.07
2022-08-26T13:10:30.977Z,1006.10
2022-08-26T13:11:27.569Z,1006.04
2022-08-26T13:12:27.631Z,1006.07
2022-08-26T13:13:27.540Z,1006.07
2022-08-26T13:14:27.524Z,1006.08
2022-08-26T13:15:27.514Z,1006.02
2022-08-26T13:16:27.561Z,1006.05
2022-08-26T13:17:27.480Z,1006.01
2022-08-26T13:18:27.474Z,1005.98
